sensor_id;sensor_type;location;lat;lon;timestamp;P1;durP1;ratioP1;P2;durP2;ratioP2
43504;SDS011;29098;48.184;16.298;2024-01-30T00:00:40;19.30;;;12.55;;
43504;SDS011;29098;48.184;16.298;2024-01-30T00:03:06;17.83;;;11.02;;
43504;SDS011;29098;48.184;16.298;2024-01-30T00:05:31;20.95;;;11.82;;
43504;SDS011;29098;48.184;16.298;2024-01-30T00:07:57;18.52;;;10.88;;
43504;SDS011;29098;48.184;16.298;2024-01-30T00:10:22;17.88;;;10.82;;
43504;SDS011;29098;48.184;16.298;2024-01-30T00:12:48;22.33;;;11.80;;
43504;SDS011;29098;48.184;16.298;2024-01-30T00:15:13;24.00;;;11.63;;
43504;SDS011;29098;48.184;16.298;2024-01-30T00:17:40;23.00;;;11.98;;
43504;SDS011;29098;48.184;16.298;2024-01-30T00:20:05;24.25;;;11.95;;
43504;SDS011;29098;48.184;16.298;2024-01-30T00:22:32;20.83;;;12.70;;
43504;SDS011;29098;48.184;16.298;2024-01-30T00:24:57;26.23;;;11.93;;
43504;SDS011;29098;48.184;16.298;2024-01-30T00:27:23;20.85;;;10.18;;
43504;SDS011;29098;48.184;16.298;2024-01-30T00:29:48;19.25;;;11.48;;
43504;SDS011;29098;48.184;16.298;2024-01-30T00:32:14;20.77;;;10.50;;
43504;SDS011;29098;48.184;16.298;2024-01-30T00:34:39;24.50;;;11.13;;
43504;SDS011;29098;48.184;16.298;2024-01-30T00:37:06;22.35;;;11.02;;
43504;SDS011;29098;48.184;16.298;2024-01-30T00:39:32;15.23;;;11.00;;
43504;SDS011;29098;48.184;16.298;2024-01-30T00:41:57;21.60;;;11.60;;
43504;SDS011;29098;48.184;16.298;2024-01-30T00:44:23;20.02;;;11.73;;
43504;SDS011;29098;48.184;16.298;2024-01-30T00:46:48;22.55;;;11.13;;
43504;SDS011;29098;48.184;16.298;2024-01-30T00:49:14;19.45;;;11.73;;
43504;SDS011;29098;48.184;16.298;2024-01-30T00:51:39;17.15;;;10.73;;
43504;SDS011;29098;48.184;16.298;2024-01-30T00:54:05;21.45;;;12.18;;
43504;SDS011;29098;48.184;16.298;2024-01-30T00:56:31;18.77;;;10.80;;
43504;SDS011;29098;48.184;16.298;2024-01-30T00:58:57;22.05;;;11.10;;
43504;SDS011;29098;48.184;16.298;2024-01-30T01:01:22;19.58;;;11.02;;
43504;SDS011;29098;48.184;16.298;2024-01-30T01:03:48;17.80;;;11.32;;
43504;SDS011;29098;48.184;16.298;2024-01-30T01:06:13;18.42;;;11.20;;
43504;SDS011;29098;48.184;16.298;2024-01-30T01:08:39;18.02;;;11.18;;
43504;SDS011;29098;48.184;16.298;2024-01-30T01:11:04;22.70;;;12.18;;
43504;SDS011;29098;48.184;16.298;2024-01-30T01:13:30;20.08;;;10.88;;
43504;SDS011;29098;48.184;16.298;2024-01-30T01:15:55;18.33;;;11.25;;
43504;SDS011;29098;48.184;16.298;2024-01-30T01:18:21;20.08;;;11.20;;
43504;SDS011;29098;48.184;16.298;2024-01-30T01:20:46;20.88;;;12.25;;
43504;SDS011;29098;48.184;16.298;2024-01-30T01:23:12;23.88;;;11.52;;
43504;SDS011;29098;48.184;16.298;2024-01-30T01:25:37;22.25;;;12.30;;
43504;SDS011;29098;48.184;16.298;2024-01-30T01:28:03;19.42;;;11.15;;
43504;SDS011;29098;48.184;16.298;2024-01-30T01:30:29;20.30;;;10.48;;
43504;SDS011;29098;48.184;16.298;2024-01-30T01:32:55;18.65;;;10.80;;
43504;SDS011;29098;48.184;16.298;2024-01-30T01:35:24;19.80;;;12.48;;
43504;SDS011;29098;48.184;16.298;2024-01-30T01:37:51;22.73;;;12.27;;
43504;SDS011;29098;48.184;16.298;2024-01-30T01:40:20;19.67;;;11.38;;
43504;SDS011;29098;48.184;16.298;2024-01-30T01:42:53;20.73;;;12.35;;
43504;SDS011;29098;48.184;16.298;2024-01-30T01:45:19;18.23;;;12.00;;
43504;SDS011;29098;48.184;16.298;2024-01-30T01:47:47;19.58;;;10.25;;
43504;SDS011;29098;48.184;16.298;2024-01-30T01:50:15;23.58;;;11.90;;
43504;SDS011;29098;48.184;16.298;2024-01-30T01:52:44;20.13;;;11.98;;
43504;SDS011;29098;48.184;16.298;2024-01-30T01:55:16;23.23;;;12.10;;
43504;SDS011;29098;48.184;16.298;2024-01-30T01:57:47;26.17;;;12.10;;
43504;SDS011;29098;48.184;16.298;2024-01-30T02:00:12;18.10;;;11.02;;
43504;SDS011;29098;48.184;16.298;2024-01-30T02:02:38;20.42;;;11.93;;
43504;SDS011;29098;48.184;16.298;2024-01-30T02:05:04;18.60;;;11.15;;
43504;SDS011;29098;48.184;16.298;2024-01-30T02:07:30;20.48;;;11.30;;
43504;SDS011;29098;48.184;16.298;2024-01-30T02:09:56;22.25;;;11.30;;
43504;SDS011;29098;48.184;16.298;2024-01-30T02:12:21;21.25;;;11.00;;
43504;SDS011;29098;48.184;16.298;2024-01-30T02:14:47;22.65;;;11.90;;
43504;SDS011;29098;48.184;16.298;2024-01-30T02:17:14;21.70;;;12.43;;
43504;SDS011;29098;48.184;16.298;2024-01-30T02:19:40;20.83;;;11.05;;
43504;SDS011;29098;48.184;16.298;2024-01-30T02:22:06;21.77;;;12.40;;
43504;SDS011;29098;48.184;16.298;2024-01-30T02:24:32;21.83;;;11.95;;
43504;SDS011;29098;48.184;16.298;2024-01-30T02:26:58;23.17;;;12.00;;
43504;SDS011;29098;48.184;16.298;2024-01-30T02:29:23;20.38;;;11.75;;
43504;SDS011;29098;48.184;16.298;2024-01-30T02:31:48;22.23;;;11.10;;
43504;SDS011;29098;48.184;16.298;2024-01-30T02:34:14;21.08;;;11.77;;
43504;SDS011;29098;48.184;16.298;2024-01-30T02:36:43;19.40;;;12.18;;
43504;SDS011;29098;48.184;16.298;2024-01-30T02:39:09;23.50;;;12.27;;
43504;SDS011;29098;48.184;16.298;2024-01-30T02:41:35;22.55;;;11.90;;
43504;SDS011;29098;48.184;16.298;2024-01-30T02:44:01;17.85;;;11.93;;
43504;SDS011;29098;48.184;16.298;2024-01-30T02:46:27;23.05;;;11.40;;
43504;SDS011;29098;48.184;16.298;2024-01-30T02:48:52;22.35;;;12.90;;
43504;SDS011;29098;48.184;16.298;2024-01-30T02:51:18;17.58;;;11.52;;
43504;SDS011;29098;48.184;16.298;2024-01-30T02:53:43;24.33;;;11.82;;
43504;SDS011;29098;48.184;16.298;2024-01-30T02:56:09;18.17;;;12.02;;
43504;SDS011;29098;48.184;16.298;2024-01-30T02:58:35;22.33;;;11.52;;
43504;SDS011;29098;48.184;16.298;2024-01-30T03:01:01;20.70;;;12.23;;
43504;SDS011;29098;48.184;16.298;2024-01-30T03:03:27;23.25;;;12.63;;
43504;SDS011;29098;48.184;16.298;2024-01-30T03:05:53;22.83;;;12.57;;
43504;SDS011;29098;48.184;16.298;2024-01-30T03:08:18;25.30;;;11.93;;
43504;SDS011;29098;48.184;16.298;2024-01-30T03:10:44;17.92;;;11.55;;
43504;SDS011;29098;48.184;16.298;2024-01-30T03:13:09;23.73;;;11.50;;
43504;SDS011;29098;48.184;16.298;2024-01-30T03:15:34;23.38;;;12.40;;
43504;SDS011;29098;48.184;16.298;2024-01-30T03:18:01;21.55;;;12.25;;
43504;SDS011;29098;48.184;16.298;2024-01-30T03:20:28;24.58;;;11.60;;
43504;SDS011;29098;48.184;16.298;2024-01-30T03:22:55;19.20;;;11.70;;
43504;SDS011;29098;48.184;16.298;2024-01-30T03:25:21;23.20;;;11.65;;
43504;SDS011;29098;48.184;16.298;2024-01-30T03:27:46;24.42;;;12.18;;
43504;SDS011;29098;48.184;16.298;2024-01-30T03:30:11;19.65;;;11.57;;
43504;SDS011;29098;48.184;16.298;2024-01-30T03:32:37;21.77;;;12.43;;
43504;SDS011;29098;48.184;16.298;2024-01-30T03:35:03;23.48;;;12.85;;
43504;SDS011;29098;48.184;16.298;2024-01-30T03:37:28;21.10;;;12.20;;
43504;SDS011;29098;48.184;16.298;2024-01-30T03:39:54;22.17;;;12.93;;
43504;SDS011;29098;48.184;16.298;2024-01-30T03:42:19;21.52;;;12.32;;
43504;SDS011;29098;48.184;16.298;2024-01-30T03:44:45;21.25;;;12.18;;
43504;SDS011;29098;48.184;16.298;2024-01-30T03:47:10;18.70;;;11.50;;
43504;SDS011;29098;48.184;16.298;2024-01-30T03:49:36;19.98;;;10.82;;
43504;SDS011;29098;48.184;16.298;2024-01-30T03:52:01;24.63;;;12.68;;
43504;SDS011;29098;48.184;16.298;2024-01-30T03:54:27;22.33;;;12.30;;
43504;SDS011;29098;48.184;16.298;2024-01-30T03:56:52;18.95;;;11.95;;
43504;SDS011;29098;48.184;16.298;2024-01-30T03:59:18;19.30;;;11.68;;
43504;SDS011;29098;48.184;16.298;2024-01-30T04:01:48;22.83;;;12.38;;
43504;SDS011;29098;48.184;16.298;2024-01-30T04:04:20;22.25;;;11.15;;
43504;SDS011;29098;48.184;16.298;2024-01-30T04:06:46;23.48;;;11.55;;
43504;SDS011;29098;48.184;16.298;2024-01-30T04:09:12;16.88;;;11.18;;
43504;SDS011;29098;48.184;16.298;2024-01-30T04:11:38;25.33;;;12.15;;
43504;SDS011;29098;48.184;16.298;2024-01-30T04:14:04;23.65;;;11.55;;
43504;SDS011;29098;48.184;16.298;2024-01-30T04:16:30;17.30;;;11.70;;
43504;SDS011;29098;48.184;16.298;2024-01-30T04:18:55;22.00;;;11.55;;
43504;SDS011;29098;48.184;16.298;2024-01-30T04:21:21;18.38;;;12.18;;
43504;SDS011;29098;48.184;16.298;2024-01-30T04:23:47;18.23;;;11.80;;
43504;SDS011;29098;48.184;16.298;2024-01-30T04:26:13;21.88;;;12.73;;
43504;SDS011;29098;48.184;16.298;2024-01-30T04:28:40;20.48;;;12.57;;
43504;SDS011;29098;48.184;16.298;2024-01-30T04:31:06;22.70;;;12.82;;
43504;SDS011;29098;48.184;16.298;2024-01-30T04:33:32;21.85;;;11.85;;
43504;SDS011;29098;48.184;16.298;2024-01-30T04:35:57;20.40;;;12.50;;
43504;SDS011;29098;48.184;16.298;2024-01-30T04:38:23;18.02;;;11.85;;
43504;SDS011;29098;48.184;16.298;2024-01-30T04:40:48;21.60;;;12.13;;
43504;SDS011;29098;48.184;16.298;2024-01-30T04:43:14;19.17;;;11.05;;
43504;SDS011;29098;48.184;16.298;2024-01-30T04:45:40;21.90;;;11.65;;
43504;SDS011;29098;48.184;16.298;2024-01-30T04:48:06;20.98;;;12.63;;
43504;SDS011;29098;48.184;16.298;2024-01-30T04:50:31;24.88;;;12.95;;
43504;SDS011;29098;48.184;16.298;2024-01-30T04:52:57;22.80;;;13.00;;
43504;SDS011;29098;48.184;16.298;2024-01-30T04:55:22;22.50;;;12.68;;
43504;SDS011;29098;48.184;16.298;2024-01-30T04:57:48;22.08;;;12.23;;
43504;SDS011;29098;48.184;16.298;2024-01-30T05:00:14;21.85;;;12.27;;
43504;SDS011;29098;48.184;16.298;2024-01-30T05:02:40;19.95;;;11.48;;
43504;SDS011;29098;48.184;16.298;2024-01-30T05:05:05;22.88;;;11.82;;
43504;SDS011;29098;48.184;16.298;2024-01-30T05:07:31;21.73;;;12.85;;
43504;SDS011;29098;48.184;16.298;2024-01-30T05:09:56;22.10;;;12.68;;
43504;SDS011;29098;48.184;16.298;2024-01-30T05:12:22;18.90;;;13.02;;
43504;SDS011;29098;48.184;16.298;2024-01-30T05:14:47;23.15;;;12.05;;
43504;SDS011;29098;48.184;16.298;2024-01-30T05:17:12;22.40;;;12.02;;
43504;SDS011;29098;48.184;16.298;2024-01-30T05:19:38;18.77;;;11.52;;
43504;SDS011;29098;48.184;16.298;2024-01-30T05:22:04;21.02;;;11.65;;
43504;SDS011;29098;48.184;16.298;2024-01-30T05:24:29;21.58;;;12.02;;
43504;SDS011;29098;48.184;16.298;2024-01-30T05:26:55;26.25;;;14.10;;
43504;SDS011;29098;48.184;16.298;2024-01-30T05:29:20;20.17;;;11.73;;
43504;SDS011;29098;48.184;16.298;2024-01-30T05:31:46;23.58;;;12.98;;
43504;SDS011;29098;48.184;16.298;2024-01-30T05:34:11;20.85;;;11.80;;
43504;SDS011;29098;48.184;16.298;2024-01-30T05:36:37;24.08;;;11.95;;
43504;SDS011;29098;48.184;16.298;2024-01-30T05:39:02;21.55;;;12.75;;
43504;SDS011;29098;48.184;16.298;2024-01-30T05:41:27;23.33;;;13.35;;
43504;SDS011;29098;48.184;16.298;2024-01-30T05:43:53;23.60;;;12.55;;
43504;SDS011;29098;48.184;16.298;2024-01-30T05:46:18;24.20;;;14.13;;
43504;SDS011;29098;48.184;16.298;2024-01-30T05:48:44;23.60;;;12.15;;
43504;SDS011;29098;48.184;16.298;2024-01-30T05:51:09;21.17;;;12.75;;
43504;SDS011;29098;48.184;16.298;2024-01-30T05:53:35;19.55;;;11.05;;
43504;SDS011;29098;48.184;16.298;2024-01-30T05:56:03;21.33;;;13.57;;
43504;SDS011;29098;48.184;16.298;2024-01-30T05:58:30;24.40;;;12.80;;
43504;SDS011;29098;48.184;16.298;2024-01-30T06:00:58;19.38;;;12.82;;
43504;SDS011;29098;48.184;16.298;2024-01-30T06:03:24;28.42;;;14.77;;
43504;SDS011;29098;48.184;16.298;2024-01-30T06:05:49;77.10;;;35.22;;
43504;SDS011;29098;48.184;16.298;2024-01-30T06:08:15;51.17;;;24.85;;
43504;SDS011;29098;48.184;16.298;2024-01-30T06:10:40;43.42;;;22.52;;
43504;SDS011;29098;48.184;16.298;2024-01-30T06:13:06;38.63;;;18.75;;
43504;SDS011;29098;48.184;16.298;2024-01-30T06:15:31;40.25;;;20.13;;
43504;SDS011;29098;48.184;16.298;2024-01-30T06:17:58;35.42;;;17.48;;
43504;SDS011;29098;48.184;16.298;2024-01-30T06:20:24;34.28;;;16.45;;
43504;SDS011;29098;48.184;16.298;2024-01-30T06:22:50;36.03;;;17.90;;
43504;SDS011;29098;48.184;16.298;2024-01-30T06:25:15;24.95;;;13.85;;
43504;SDS011;29098;48.184;16.298;2024-01-30T06:27:41;22.75;;;13.77;;
43504;SDS011;29098;48.184;16.298;2024-01-30T06:30:07;23.98;;;15.10;;
43504;SDS011;29098;48.184;16.298;2024-01-30T06:32:33;28.33;;;16.95;;
43504;SDS011;29098;48.184;16.298;2024-01-30T06:35:01;26.63;;;15.32;;
43504;SDS011;29098;48.184;16.298;2024-01-30T06:37:27;28.55;;;15.68;;
43504;SDS011;29098;48.184;16.298;2024-01-30T06:39:53;25.02;;;13.75;;
43504;SDS011;29098;48.184;16.298;2024-01-30T06:42:18;30.08;;;16.25;;
43504;SDS011;29098;48.184;16.298;2024-01-30T06:44:44;29.30;;;14.27;;
43504;SDS011;29098;48.184;16.298;2024-01-30T06:47:10;26.25;;;13.82;;
43504;SDS011;29098;48.184;16.298;2024-01-30T06:49:35;26.30;;;15.02;;
43504;SDS011;29098;48.184;16.298;2024-01-30T06:52:04;23.15;;;15.57;;
43504;SDS011;29098;48.184;16.298;2024-01-30T06:54:30;28.15;;;13.98;;
43504;SDS011;29098;48.184;16.298;2024-01-30T06:56:56;25.90;;;13.35;;
43504;SDS011;29098;48.184;16.298;2024-01-30T06:59:21;23.90;;;14.60;;
43504;SDS011;29098;48.184;16.298;2024-01-30T07:01:47;32.35;;;13.82;;
43504;SDS011;29098;48.184;16.298;2024-01-30T07:04:12;25.85;;;13.80;;
43504;SDS011;29098;48.184;16.298;2024-01-30T07:06:38;23.17;;;13.43;;
43504;SDS011;29098;48.184;16.298;2024-01-30T07:09:03;25.90;;;15.18;;
43504;SDS011;29098;48.184;16.298;2024-01-30T07:11:28;37.92;;;17.38;;
43504;SDS011;29098;48.184;16.298;2024-01-30T07:13:54;46.05;;;25.00;;
43504;SDS011;29098;48.184;16.298;2024-01-30T07:16:19;46.65;;;27.70;;
43504;SDS011;29098;48.184;16.298;2024-01-30T07:18:45;52.35;;;31.40;;
43504;SDS011;29098;48.184;16.298;2024-01-30T07:21:11;53.78;;;30.75;;
43504;SDS011;29098;48.184;16.298;2024-01-30T07:23:37;54.33;;;32.20;;
43504;SDS011;29098;48.184;16.298;2024-01-30T07:26:04;54.38;;;32.15;;
43504;SDS011;29098;48.184;16.298;2024-01-30T07:28:30;52.38;;;30.70;;
43504;SDS011;29098;48.184;16.298;2024-01-30T07:30:55;47.95;;;26.98;;
43504;SDS011;29098;48.184;16.298;2024-01-30T07:33:21;42.35;;;25.42;;
43504;SDS011;29098;48.184;16.298;2024-01-30T07:35:46;41.80;;;21.98;;
43504;SDS011;29098;48.184;16.298;2024-01-30T07:38:12;44.53;;;23.77;;
43504;SDS011;29098;48.184;16.298;2024-01-30T07:40:37;35.97;;;18.60;;
43504;SDS011;29098;48.184;16.298;2024-01-30T07:43:03;30.45;;;19.38;;
43504;SDS011;29098;48.184;16.298;2024-01-30T07:45:28;34.50;;;19.77;;
43504;SDS011;29098;48.184;16.298;2024-01-30T07:47:57;32.25;;;17.67;;
43504;SDS011;29098;48.184;16.298;2024-01-30T07:50:24;29.98;;;16.73;;
43504;SDS011;29098;48.184;16.298;2024-01-30T07:52:50;30.30;;;15.90;;
43504;SDS011;29098;48.184;16.298;2024-01-30T07:58:14;23.83;;;14.32;;
43504;SDS011;29098;48.184;16.298;2024-01-30T08:00:40;28.42;;;14.10;;
43504;SDS011;29098;48.184;16.298;2024-01-30T08:03:05;23.70;;;14.60;;
43504;SDS011;29098;48.184;16.298;2024-01-30T08:05:31;26.02;;;14.10;;
43504;SDS011;29098;48.184;16.298;2024-01-30T08:07:56;27.20;;;16.40;;
43504;SDS011;29098;48.184;16.298;2024-01-30T08:10:22;21.27;;;13.93;;
43504;SDS011;29098;48.184;16.298;2024-01-30T08:12:47;26.63;;;14.57;;
43504;SDS011;29098;48.184;16.298;2024-01-30T08:15:13;31.42;;;15.40;;
43504;SDS011;29098;48.184;16.298;2024-01-30T08:17:39;26.60;;;15.38;;
43504;SDS011;29098;48.184;16.298;2024-01-30T08:20:04;28.08;;;13.98;;
43504;SDS011;29098;48.184;16.298;2024-01-30T08:22:30;29.75;;;14.88;;
43504;SDS011;29098;48.184;16.298;2024-01-30T08:24:56;26.13;;;13.15;;
43504;SDS011;29098;48.184;16.298;2024-01-30T08:27:21;24.20;;;13.20;;
43504;SDS011;29098;48.184;16.298;2024-01-30T08:29:47;24.65;;;13.60;;
43504;SDS011;29098;48.184;16.298;2024-01-30T08:32:12;20.45;;;13.40;;
43504;SDS011;29098;48.184;16.298;2024-01-30T08:34:38;21.10;;;12.88;;
43504;SDS011;29098;48.184;16.298;2024-01-30T08:37:03;25.05;;;14.05;;
43504;SDS011;29098;48.184;16.298;2024-01-30T08:39:29;28.55;;;14.15;;
43504;SDS011;29098;48.184;16.298;2024-01-30T08:41:55;21.77;;;13.25;;
43504;SDS011;29098;48.184;16.298;2024-01-30T08:44:20;24.23;;;14.43;;
43504;SDS011;29098;48.184;16.298;2024-01-30T08:46:46;22.27;;;13.20;;
43504;SDS011;29098;48.184;16.298;2024-01-30T08:49:13;30.10;;;16.08;;
43504;SDS011;29098;48.184;16.298;2024-01-30T08:51:39;22.30;;;14.57;;
43504;SDS011;29098;48.184;16.298;2024-01-30T08:54:04;21.27;;;12.38;;
43504;SDS011;29098;48.184;16.298;2024-01-30T08:56:30;21.60;;;13.13;;
43504;SDS011;29098;48.184;16.298;2024-01-30T08:58:56;26.02;;;13.05;;
43504;SDS011;29098;48.184;16.298;2024-01-30T09:01:21;26.27;;;12.98;;
43504;SDS011;29098;48.184;16.298;2024-01-30T09:03:47;19.98;;;12.90;;
43504;SDS011;29098;48.184;16.298;2024-01-30T09:06:12;23.40;;;13.50;;
43504;SDS011;29098;48.184;16.298;2024-01-30T09:08:38;23.45;;;13.85;;
43504;SDS011;29098;48.184;16.298;2024-01-30T09:11:13;23.85;;;12.50;;
43504;SDS011;29098;48.184;16.298;2024-01-30T09:13:39;22.83;;;14.65;;
43504;SDS011;29098;48.184;16.298;2024-01-30T09:16:05;39.10;;;17.88;;
43504;SDS011;29098;48.184;16.298;2024-01-30T09:18:32;26.98;;;15.82;;
43504;SDS011;29098;48.184;16.298;2024-01-30T09:20:58;25.92;;;14.85;;
43504;SDS011;29098;48.184;16.298;2024-01-30T09:23:23;23.65;;;14.07;;
43504;SDS011;29098;48.184;16.298;2024-01-30T09:25:49;24.15;;;13.77;;
43504;SDS011;29098;48.184;16.298;2024-01-30T09:28:15;22.38;;;11.80;;
43504;SDS011;29098;48.184;16.298;2024-01-30T09:30:44;20.35;;;12.07;;
43504;SDS011;29098;48.184;16.298;2024-01-30T09:33:10;19.15;;;12.68;;
43504;SDS011;29098;48.184;16.298;2024-01-30T09:35:37;24.15;;;13.05;;
43504;SDS011;29098;48.184;16.298;2024-01-30T09:38:03;20.73;;;12.82;;
43504;SDS011;29098;48.184;16.298;2024-01-30T09:40:31;25.23;;;13.43;;
43504;SDS011;29098;48.184;16.298;2024-01-30T09:42:57;27.60;;;14.68;;
43504;SDS011;29098;48.184;16.298;2024-01-30T09:45:26;24.30;;;12.55;;
43504;SDS011;29098;48.184;16.298;2024-01-30T09:47:52;24.48;;;14.15;;
43504;SDS011;29098;48.184;16.298;2024-01-30T09:50:18;20.83;;;12.05;;
43504;SDS011;29098;48.184;16.298;2024-01-30T09:52:44;20.35;;;12.63;;
43504;SDS011;29098;48.184;16.298;2024-01-30T09:55:11;22.50;;;13.57;;
43504;SDS011;29098;48.184;16.298;2024-01-30T09:57:37;21.58;;;13.15;;
43504;SDS011;29098;48.184;16.298;2024-01-30T10:00:03;27.02;;;12.80;;
43504;SDS011;29098;48.184;16.298;2024-01-30T10:02:30;20.55;;;12.05;;
43504;SDS011;29098;48.184;16.298;2024-01-30T10:04:56;24.33;;;12.80;;
43504;SDS011;29098;48.184;16.298;2024-01-30T10:07:22;21.85;;;12.40;;
43504;SDS011;29098;48.184;16.298;2024-01-30T10:09:48;22.52;;;12.15;;
43504;SDS011;29098;48.184;16.298;2024-01-30T10:12:17;18.63;;;11.57;;
43504;SDS011;29098;48.184;16.298;2024-01-30T10:14:42;19.88;;;11.52;;
43504;SDS011;29098;48.184;16.298;2024-01-30T10:17:11;23.83;;;12.02;;
43504;SDS011;29098;48.184;16.298;2024-01-30T10:19:37;21.90;;;10.55;;
43504;SDS011;29098;48.184;16.298;2024-01-30T10:22:04;21.60;;;11.77;;
43504;SDS011;29098;48.184;16.298;2024-01-30T10:24:31;22.65;;;12.95;;
43504;SDS011;29098;48.184;16.298;2024-01-30T10:26:58;22.33;;;11.77;;
43504;SDS011;29098;48.184;16.298;2024-01-30T10:29:23;20.60;;;11.93;;
43504;SDS011;29098;48.184;16.298;2024-01-30T10:32:02;25.90;;;12.20;;
43504;SDS011;29098;48.184;16.298;2024-01-30T10:34:29;20.60;;;12.18;;
43504;SDS011;29098;48.184;16.298;2024-01-30T10:37:16;20.45;;;11.32;;
43504;SDS011;29098;48.184;16.298;2024-01-30T10:39:42;23.00;;;12.52;;
43504;SDS011;29098;48.184;16.298;2024-01-30T10:42:12;20.65;;;10.85;;
43504;SDS011;29098;48.184;16.298;2024-01-30T10:44:43;16.17;;;10.30;;
43504;SDS011;29098;48.184;16.298;2024-01-30T10:47:14;17.92;;;10.52;;
43504;SDS011;29098;48.184;16.298;2024-01-30T10:49:44;15.70;;;10.98;;
43504;SDS011;29098;48.184;16.298;2024-01-30T10:52:11;19.90;;;9.93;;
43504;SDS011;29098;48.184;16.298;2024-01-30T10:54:40;20.90;;;11.88;;
43504;SDS011;29098;48.184;16.298;2024-01-30T10:57:08;17.00;;;9.75;;
43504;SDS011;29098;48.184;16.298;2024-01-30T10:59:35;17.88;;;9.60;;
43504;SDS011;29098;48.184;16.298;2024-01-30T11:02:01;20.20;;;10.50;;
43504;SDS011;29098;48.184;16.298;2024-01-30T11:04:27;15.18;;;9.55;;
43504;SDS011;29098;48.184;16.298;2024-01-30T11:07:01;18.63;;;10.20;;
43504;SDS011;29098;48.184;16.298;2024-01-30T11:09:28;15.85;;;9.38;;
43504;SDS011;29098;48.184;16.298;2024-01-30T11:11:58;14.88;;;9.82;;
43504;SDS011;29098;48.184;16.298;2024-01-30T11:14:27;17.85;;;10.20;;
43504;SDS011;29098;48.184;16.298;2024-01-30T11:16:58;17.23;;;10.02;;
43504;SDS011;29098;48.184;16.298;2024-01-30T11:19:27;17.90;;;9.98;;
43504;SDS011;29098;48.184;16.298;2024-01-30T11:21:52;16.65;;;10.77;;
43504;SDS011;29098;48.184;16.298;2024-01-30T11:24:22;14.77;;;9.98;;
43504;SDS011;29098;48.184;16.298;2024-01-30T11:26:55;16.15;;;9.85;;
43504;SDS011;29098;48.184;16.298;2024-01-30T11:29:28;17.40;;;10.55;;
43504;SDS011;29098;48.184;16.298;2024-01-30T11:31:54;17.05;;;10.52;;
43504;SDS011;29098;48.184;16.298;2024-01-30T11:34:21;20.25;;;10.43;;
43504;SDS011;29098;48.184;16.298;2024-01-30T11:36:56;17.52;;;9.63;;
43504;SDS011;29098;48.184;16.298;2024-01-30T11:39:27;18.00;;;10.30;;
43504;SDS011;29098;48.184;16.298;2024-01-30T11:41:52;16.77;;;10.60;;
43504;SDS011;29098;48.184;16.298;2024-01-30T11:44:21;14.57;;;9.95;;
43504;SDS011;29098;48.184;16.298;2024-01-30T11:46:48;15.18;;;10.48;;
43504;SDS011;29098;48.184;16.298;2024-01-30T11:49:14;16.00;;;9.57;;
43504;SDS011;29098;48.184;16.298;2024-01-30T11:51:40;14.73;;;9.30;;
43504;SDS011;29098;48.184;16.298;2024-01-30T11:54:07;15.18;;;10.25;;
43504;SDS011;29098;48.184;16.298;2024-01-30T11:56:32;20.40;;;10.13;;
43504;SDS011;29098;48.184;16.298;2024-01-30T11:58:58;16.00;;;9.68;;
43504;SDS011;29098;48.184;16.298;2024-01-30T12:01:25;17.65;;;9.80;;
43504;SDS011;29098;48.184;16.298;2024-01-30T12:03:51;16.42;;;10.60;;
43504;SDS011;29098;48.184;16.298;2024-01-30T12:06:17;16.75;;;10.18;;
43504;SDS011;29098;48.184;16.298;2024-01-30T12:08:42;14.90;;;8.80;;
43504;SDS011;29098;48.184;16.298;2024-01-30T12:11:09;14.52;;;10.57;;
43504;SDS011;29098;48.184;16.298;2024-01-30T12:13:35;20.42;;;10.63;;
43504;SDS011;29098;48.184;16.298;2024-01-30T12:16:00;18.30;;;10.23;;
43504;SDS011;29098;48.184;16.298;2024-01-30T12:18:26;17.58;;;10.48;;
43504;SDS011;29098;48.184;16.298;2024-01-30T12:21:01;16.20;;;9.35;;
43504;SDS011;29098;48.184;16.298;2024-01-30T12:23:27;17.45;;;9.70;;
43504;SDS011;29098;48.184;16.298;2024-01-30T12:25:53;16.75;;;9.95;;
43504;SDS011;29098;48.184;16.298;2024-01-30T12:28:19;17.08;;;9.93;;
43504;SDS011;29098;48.184;16.298;2024-01-30T12:30:45;14.68;;;9.98;;
43504;SDS011;29098;48.184;16.298;2024-01-30T12:33:15;16.05;;;10.57;;
43504;SDS011;29098;48.184;16.298;2024-01-30T12:35:46;20.10;;;10.80;;
43504;SDS011;29098;48.184;16.298;2024-01-30T12:38:13;17.25;;;11.10;;
43504;SDS011;29098;48.184;16.298;2024-01-30T12:40:39;15.30;;;10.60;;
43504;SDS011;29098;48.184;16.298;2024-01-30T12:43:04;20.00;;;9.40;;
43504;SDS011;29098;48.184;16.298;2024-01-30T12:45:30;17.23;;;9.90;;
43504;SDS011;29098;48.184;16.298;2024-01-30T12:47:55;16.20;;;9.70;;
43504;SDS011;29098;48.184;16.298;2024-01-30T12:50:21;14.02;;;9.38;;
43504;SDS011;29098;48.184;16.298;2024-01-30T12:52:47;17.13;;;9.75;;
43504;SDS011;29098;48.184;16.298;2024-01-30T12:55:13;17.67;;;9.98;;
43504;SDS011;29098;48.184;16.298;2024-01-30T12:57:38;19.67;;;10.57;;
43504;SDS011;29098;48.184;16.298;2024-01-30T13:00:04;15.93;;;9.43;;
43504;SDS011;29098;48.184;16.298;2024-01-30T13:02:33;17.15;;;11.07;;
43504;SDS011;29098;48.184;16.298;2024-01-30T13:05:02;15.75;;;8.95;;
43504;SDS011;29098;48.184;16.298;2024-01-30T13:07:29;15.25;;;10.07;;
43504;SDS011;29098;48.184;16.298;2024-01-30T13:09:55;15.55;;;9.93;;
43504;SDS011;29098;48.184;16.298;2024-01-30T13:12:28;15.10;;;9.18;;
43504;SDS011;29098;48.184;16.298;2024-01-30T13:14:54;14.82;;;10.35;;
43504;SDS011;29098;48.184;16.298;2024-01-30T13:17:20;14.88;;;9.60;;
43504;SDS011;29098;48.184;16.298;2024-01-30T13:19:45;15.05;;;9.70;;
43504;SDS011;29098;48.184;16.298;2024-01-30T13:22:11;18.13;;;9.88;;
43504;SDS011;29098;48.184;16.298;2024-01-30T13:24:36;15.35;;;9.68;;
43504;SDS011;29098;48.184;16.298;2024-01-30T13:27:02;19.67;;;10.65;;
43504;SDS011;29098;48.184;16.298;2024-01-30T13:29:30;14.82;;;9.27;;
43504;SDS011;29098;48.184;16.298;2024-01-30T13:31:56;17.60;;;9.85;;
43504;SDS011;29098;48.184;16.298;2024-01-30T13:34:21;15.95;;;10.13;;
43504;SDS011;29098;48.184;16.298;2024-01-30T13:36:47;17.42;;;10.75;;
43504;SDS011;29098;48.184;16.298;2024-01-30T13:39:13;15.88;;;8.90;;
43504;SDS011;29098;48.184;16.298;2024-01-30T13:41:39;13.32;;;8.77;;
43504;SDS011;29098;48.184;16.298;2024-01-30T13:44:06;16.60;;;8.98;;
43504;SDS011;29098;48.184;16.298;2024-01-30T13:46:31;18.27;;;8.98;;
43504;SDS011;29098;48.184;16.298;2024-01-30T13:48:57;16.42;;;9.32;;
43504;SDS011;29098;48.184;16.298;2024-01-30T13:51:23;14.88;;;9.15;;
43504;SDS011;29098;48.184;16.298;2024-01-30T13:53:49;15.95;;;9.27;;
43504;SDS011;29098;48.184;16.298;2024-01-30T13:56:15;19.70;;;8.82;;
43504;SDS011;29098;48.184;16.298;2024-01-30T13:58:40;16.27;;;9.10;;
43504;SDS011;29098;48.184;16.298;2024-01-30T14:01:06;19.65;;;11.23;;
43504;SDS011;29098;48.184;16.298;2024-01-30T14:03:31;14.07;;;9.45;;
43504;SDS011;29098;48.184;16.298;2024-01-30T14:05:57;18.45;;;9.68;;
43504;SDS011;29098;48.184;16.298;2024-01-30T14:08:23;17.70;;;9.05;;